Port Wash, New York
Current Conditions -  °F | °C
As of 3:51 PM on Thursday 23 Oct 2014 (Local Time) from KLGA Reporting Station
Broken Clouds Broken Clouds  
Wind Chill: 52°   Ceiling: 2000
Heat Index: 52°   Visibility: 10mi
Dew Point: 46°   Wind: 21mph
Humidity: 80%   Direction: 340°NNW
Pressure: 29.68"   Gusts: 29mph
Location:  40.8387°N, 73.6912°W
Report Text: KLGA 231951Z 34018G25KT 10SM SCT016 BKN020 BKN041 11/08 A2968 RMK AO2 RAE25 SLP052 P0002 T01110078
Loading
Personal Weather Stations






























Interactive Weather Map New forecast layout! Learn more

10-Day Weather Forecast

Advertisements
Track Severe Weather on mobile